sensor_id;sensor_type;location;lat;lon;timestamp;temperature;humidity
23347;DHT22;36852;45.466;11.066;2024-01-27T00:00:57;3.10;99.90
23347;DHT22;36852;45.466;11.066;2024-01-27T00:03:46;3.10;99.90
23347;DHT22;36852;45.466;11.066;2024-01-27T00:06:21;3.00;99.90
23347;DHT22;36852;45.466;11.066;2024-01-27T00:08:50;3.00;99.90
23347;DHT22;36852;45.466;11.066;2024-01-27T00:11:26;2.90;99.90
23347;DHT22;36852;45.466;11.066;2024-01-27T00:14:04;2.90;99.90
23347;DHT22;36852;45.466;11.066;2024-01-27T00:16:38;2.90;99.90
23347;DHT22;36852;45.466;11.066;2024-01-27T00:19:06;2.90;99.90
23347;DHT22;36852;45.466;11.066;2024-01-27T00:21:38;2.90;99.90
23347;DHT22;36852;45.466;11.066;2024-01-27T00:24:10;2.90;99.90
23347;DHT22;36852;45.466;11.066;2024-01-27T00:27:01;2.90;99.90
23347;DHT22;36852;45.466;11.066;2024-01-27T00:29:29;3.00;99.90
23347;DHT22;36852;45.466;11.066;2024-01-27T00:32:07;2.90;99.90
23347;DHT22;36852;45.466;11.066;2024-01-27T00:34:35;2.90;99.90
23347;DHT22;36852;45.466;11.066;2024-01-27T00:37:04;2.90;99.90
23347;DHT22;36852;45.466;11.066;2024-01-27T00:39:33;2.80;99.90
23347;DHT22;36852;45.466;11.066;2024-01-27T00:42:01;2.80;99.90
23347;DHT22;36852;45.466;11.066;2024-01-27T00:44:29;2.80;99.90
23347;DHT22;36852;45.466;11.066;2024-01-27T00:47:00;2.80;99.90
23347;DHT22;36852;45.466;11.066;2024-01-27T00:49:32;2.70;99.90
23347;DHT22;36852;45.466;11.066;2024-01-27T00:51:59;2.60;99.90
23347;DHT22;36852;45.466;11.066;2024-01-27T00:54:29;2.60;99.90
23347;DHT22;36852;45.466;11.066;2024-01-27T00:56:56;2.60;99.90
23347;DHT22;36852;45.466;11.066;2024-01-27T00:59:24;2.60;99.90
23347;DHT22;36852;45.466;11.066;2024-01-27T01:01:57;2.50;99.90
23347;DHT22;36852;45.466;11.066;2024-01-27T01:04:26;2.60;99.90
23347;DHT22;36852;45.466;11.066;2024-01-27T01:06:55;2.60;99.90
23347;DHT22;36852;45.466;11.066;2024-01-27T01:09:23;2.50;99.90
23347;DHT22;36852;45.466;11.066;2024-01-27T01:11:51;2.60;99.90
23347;DHT22;36852;45.466;11.066;2024-01-27T01:14:19;2.60;99.90
23347;DHT22;36852;45.466;11.066;2024-01-27T01:16:47;2.60;99.90
23347;DHT22;36852;45.466;11.066;2024-01-27T01:19:15;2.60;99.90
23347;DHT22;36852;45.466;11.066;2024-01-27T01:21:47;2.50;99.90
23347;DHT22;36852;45.466;11.066;2024-01-27T01:24:15;2.50;99.90
23347;DHT22;36852;45.466;11.066;2024-01-27T01:26:45;2.30;99.90
23347;DHT22;36852;45.466;11.066;2024-01-27T01:29:23;2.20;99.90
23347;DHT22;36852;45.466;11.066;2024-01-27T01:31:52;2.10;99.90
23347;DHT22;36852;45.466;11.066;2024-01-27T01:34:23;2.10;99.90
23347;DHT22;36852;45.466;11.066;2024-01-27T01:36:51;2.00;99.90
23347;DHT22;36852;45.466;11.066;2024-01-27T01:39:19;1.90;99.90
23347;DHT22;36852;45.466;11.066;2024-01-27T01:41:48;1.90;99.90
23347;DHT22;36852;45.466;11.066;2024-01-27T01:44:16;1.80;99.90
23347;DHT22;36852;45.466;11.066;2024-01-27T01:46:44;1.80;99.90
23347;DHT22;36852;45.466;11.066;2024-01-27T01:49:12;1.90;99.90
23347;DHT22;36852;45.466;11.066;2024-01-27T01:51:41;2.00;99.90
23347;DHT22;36852;45.466;11.066;2024-01-27T01:54:09;2.00;99.90
23347;DHT22;36852;45.466;11.066;2024-01-27T01:56:37;2.00;99.90
23347;DHT22;36852;45.466;11.066;2024-01-27T01:59:05;2.10;99.90
23347;DHT22;36852;45.466;11.066;2024-01-27T02:01:33;2.20;99.90
23347;DHT22;36852;45.466;11.066;2024-01-27T02:04:05;2.20;99.90
23347;DHT22;36852;45.466;11.066;2024-01-27T02:06:33;2.10;99.90
23347;DHT22;36852;45.466;11.066;2024-01-27T02:09:01;2.10;99.90
23347;DHT22;36852;45.466;11.066;2024-01-27T02:11:30;1.90;99.90
23347;DHT22;36852;45.466;11.066;2024-01-27T02:13:58;1.90;99.90
23347;DHT22;36852;45.466;11.066;2024-01-27T02:16:26;1.80;99.90
23347;DHT22;36852;45.466;11.066;2024-01-27T02:18:54;1.80;99.90
23347;DHT22;36852;45.466;11.066;2024-01-27T02:21:22;1.80;99.90
23347;DHT22;36852;45.466;11.066;2024-01-27T02:23:51;1.80;99.90
23347;DHT22;36852;45.466;11.066;2024-01-27T02:26:20;1.80;99.90
23347;DHT22;36852;45.466;11.066;2024-01-27T02:28:48;1.80;99.90
23347;DHT22;36852;45.466;11.066;2024-01-27T02:31:16;1.90;99.90
23347;DHT22;36852;45.466;11.066;2024-01-27T02:33:45;1.90;99.90
23347;DHT22;36852;45.466;11.066;2024-01-27T02:36:14;2.00;99.90
23347;DHT22;36852;45.466;11.066;2024-01-27T02:38:43;1.70;99.90
23347;DHT22;36852;45.466;11.066;2024-01-27T02:41:12;1.60;99.90
23347;DHT22;36852;45.466;11.066;2024-01-27T02:43:41;1.70;99.90
23347;DHT22;36852;45.466;11.066;2024-01-27T02:46:12;1.80;99.90
23347;DHT22;36852;45.466;11.066;2024-01-27T02:48:43;1.80;99.90
23347;DHT22;36852;45.466;11.066;2024-01-27T02:51:13;1.80;99.90
23347;DHT22;36852;45.466;11.066;2024-01-27T02:53:40;1.90;99.90
23347;DHT22;36852;45.466;11.066;2024-01-27T02:56:08;1.90;99.90
23347;DHT22;36852;45.466;11.066;2024-01-27T02:58:37;2.00;99.90
23347;DHT22;36852;45.466;11.066;2024-01-27T03:01:05;2.00;99.90
23347;DHT22;36852;45.466;11.066;2024-01-27T03:03:34;1.90;99.90
23347;DHT22;36852;45.466;11.066;2024-01-27T03:06:02;1.90;99.90
23347;DHT22;36852;45.466;11.066;2024-01-27T03:08:33;2.00;99.90
23347;DHT22;36852;45.466;11.066;2024-01-27T03:11:02;2.00;99.90
23347;DHT22;36852;45.466;11.066;2024-01-27T03:13:31;2.00;99.90
23347;DHT22;36852;45.466;11.066;2024-01-27T03:15:59;2.00;99.90
23347;DHT22;36852;45.466;11.066;2024-01-27T03:18:28;2.00;99.90
23347;DHT22;36852;45.466;11.066;2024-01-27T03:20:57;1.90;99.90
23347;DHT22;36852;45.466;11.066;2024-01-27T03:23:25;1.80;99.90
23347;DHT22;36852;45.466;11.066;2024-01-27T03:25:53;1.80;99.90
23347;DHT22;36852;45.466;11.066;2024-01-27T03:28:23;1.80;99.90
23347;DHT22;36852;45.466;11.066;2024-01-27T03:30:51;1.70;99.90
23347;DHT22;36852;45.466;11.066;2024-01-27T03:33:20;1.70;99.90
23347;DHT22;36852;45.466;11.066;2024-01-27T03:35:50;1.50;99.90
23347;DHT22;36852;45.466;11.066;2024-01-27T03:38:18;1.40;99.90
23347;DHT22;36852;45.466;11.066;2024-01-27T03:40:46;1.40;99.90
23347;DHT22;36852;45.466;11.066;2024-01-27T03:43:14;1.50;99.90
23347;DHT22;36852;45.466;11.066;2024-01-27T03:45:43;1.60;99.90
23347;DHT22;36852;45.466;11.066;2024-01-27T03:48:11;1.50;99.90
23347;DHT22;36852;45.466;11.066;2024-01-27T03:50:40;1.50;99.90
23347;DHT22;36852;45.466;11.066;2024-01-27T03:53:08;1.50;99.90
23347;DHT22;36852;45.466;11.066;2024-01-27T03:55:37;1.50;99.90
23347;DHT22;36852;45.466;11.066;2024-01-27T03:58:05;1.50;99.90
23347;DHT22;36852;45.466;11.066;2024-01-27T04:00:33;1.60;99.90
23347;DHT22;36852;45.466;11.066;2024-01-27T04:03:02;1.60;99.90
23347;DHT22;36852;45.466;11.066;2024-01-27T04:05:30;1.60;99.90
23347;DHT22;36852;45.466;11.066;2024-01-27T04:08:06;1.50;99.90
23347;DHT22;36852;45.466;11.066;2024-01-27T04:10:34;1.40;99.90
23347;DHT22;36852;45.466;11.066;2024-01-27T04:13:02;1.40;99.90
23347;DHT22;36852;45.466;11.066;2024-01-27T04:15:34;1.30;99.90
23347;DHT22;36852;45.466;11.066;2024-01-27T04:18:08;1.30;99.90
23347;DHT22;36852;45.466;11.066;2024-01-27T04:20:37;1.30;99.90
23347;DHT22;36852;45.466;11.066;2024-01-27T04:23:05;1.30;99.90
23347;DHT22;36852;45.466;11.066;2024-01-27T04:25:35;1.30;99.90
23347;DHT22;36852;45.466;11.066;2024-01-27T04:28:03;1.40;99.90
23347;DHT22;36852;45.466;11.066;2024-01-27T04:30:32;1.40;99.90
23347;DHT22;36852;45.466;11.066;2024-01-27T04:33:03;1.50;99.90
23347;DHT22;36852;45.466;11.066;2024-01-27T04:35:36;1.40;99.90
23347;DHT22;36852;45.466;11.066;2024-01-27T04:38:05;1.30;99.90
23347;DHT22;36852;45.466;11.066;2024-01-27T04:40:33;1.30;99.90
23347;DHT22;36852;45.466;11.066;2024-01-27T04:43:02;1.40;99.90
23347;DHT22;36852;45.466;11.066;2024-01-27T04:45:31;1.40;99.90
23347;DHT22;36852;45.466;11.066;2024-01-27T04:47:59;1.40;99.90
23347;DHT22;36852;45.466;11.066;2024-01-27T04:50:29;1.40;99.90
23347;DHT22;36852;45.466;11.066;2024-01-27T04:52:57;1.40;99.90
23347;DHT22;36852;45.466;11.066;2024-01-27T04:55:25;1.30;99.90
23347;DHT22;36852;45.466;11.066;2024-01-27T04:57:54;1.20;99.90
23347;DHT22;36852;45.466;11.066;2024-01-27T05:00:22;1.20;99.90
23347;DHT22;36852;45.466;11.066;2024-01-27T05:02:50;1.20;99.90
23347;DHT22;36852;45.466;11.066;2024-01-27T05:05:18;1.20;99.90
23347;DHT22;36852;45.466;11.066;2024-01-27T05:07:47;1.20;99.90
23347;DHT22;36852;45.466;11.066;2024-01-27T05:10:15;1.20;99.90
23347;DHT22;36852;45.466;11.066;2024-01-27T05:12:44;1.20;99.90
23347;DHT22;36852;45.466;11.066;2024-01-27T05:15:13;1.20;99.90
23347;DHT22;36852;45.466;11.066;2024-01-27T05:17:42;1.20;99.90
23347;DHT22;36852;45.466;11.066;2024-01-27T05:20:13;1.10;99.90
23347;DHT22;36852;45.466;11.066;2024-01-27T05:22:42;1.00;99.90
23347;DHT22;36852;45.466;11.066;2024-01-27T05:25:13;0.90;99.90
23347;DHT22;36852;45.466;11.066;2024-01-27T05:27:43;0.90;99.90
23347;DHT22;36852;45.466;11.066;2024-01-27T05:30:11;0.80;99.90
23347;DHT22;36852;45.466;11.066;2024-01-27T05:32:40;0.90;99.90
23347;DHT22;36852;45.466;11.066;2024-01-27T05:35:08;0.90;99.90
23347;DHT22;36852;45.466;11.066;2024-01-27T05:37:37;1.00;99.90
23347;DHT22;36852;45.466;11.066;2024-01-27T05:40:10;1.00;99.90
23347;DHT22;36852;45.466;11.066;2024-01-27T05:42:39;1.00;99.90
23347;DHT22;36852;45.466;11.066;2024-01-27T05:45:09;0.90;99.90
23347;DHT22;36852;45.466;11.066;2024-01-27T05:47:39;0.80;99.90
23347;DHT22;36852;45.466;11.066;2024-01-27T05:50:07;0.80;99.90
23347;DHT22;36852;45.466;11.066;2024-01-27T05:52:36;0.70;99.90
23347;DHT22;36852;45.466;11.066;2024-01-27T05:55:05;0.70;99.90
23347;DHT22;36852;45.466;11.066;2024-01-27T05:57:35;0.80;99.90
23347;DHT22;36852;45.466;11.066;2024-01-27T06:00:04;0.70;99.90
23347;DHT22;36852;45.466;11.066;2024-01-27T06:02:33;0.80;99.90
23347;DHT22;36852;45.466;11.066;2024-01-27T06:05:03;0.90;99.90
23347;DHT22;36852;45.466;11.066;2024-01-27T06:07:37;0.90;99.90
23347;DHT22;36852;45.466;11.066;2024-01-27T06:10:08;0.90;99.90
23347;DHT22;36852;45.466;11.066;2024-01-27T06:12:42;0.90;99.90
23347;DHT22;36852;45.466;11.066;2024-01-27T06:15:09;0.80;99.90
23347;DHT22;36852;45.466;11.066;2024-01-27T06:17:38;0.80;99.90
23347;DHT22;36852;45.466;11.066;2024-01-27T06:20:07;0.70;99.90
23347;DHT22;36852;45.466;11.066;2024-01-27T06:22:36;0.70;99.90
23347;DHT22;36852;45.466;11.066;2024-01-27T06:25:04;0.70;99.90
23347;DHT22;36852;45.466;11.066;2024-01-27T06:27:33;0.70;99.90
23347;DHT22;36852;45.466;11.066;2024-01-27T06:30:07;0.80;99.90
23347;DHT22;36852;45.466;11.066;2024-01-27T06:32:35;0.80;99.90
23347;DHT22;36852;45.466;11.066;2024-01-27T06:35:03;0.90;99.90
23347;DHT22;36852;45.466;11.066;2024-01-27T06:37:32;1.00;99.90
23347;DHT22;36852;45.466;11.066;2024-01-27T06:40:10;1.10;99.90
23347;DHT22;36852;45.466;11.066;2024-01-27T06:42:39;1.30;99.90
23347;DHT22;36852;45.466;11.066;2024-01-27T06:45:08;1.40;99.90
23347;DHT22;36852;45.466;11.066;2024-01-27T06:47:37;1.50;99.90
23347;DHT22;36852;45.466;11.066;2024-01-27T06:50:06;1.60;99.90
23347;DHT22;36852;45.466;11.066;2024-01-27T06:52:33;1.50;99.90
23347;DHT22;36852;45.466;11.066;2024-01-27T06:55:03;1.50;99.90
23347;DHT22;36852;45.466;11.066;2024-01-27T06:57:32;1.40;99.90
23347;DHT22;36852;45.466;11.066;2024-01-27T07:00:00;1.30;99.90
23347;DHT22;36852;45.466;11.066;2024-01-27T07:02:29;1.20;99.90
23347;DHT22;36852;45.466;11.066;2024-01-27T07:04:57;1.20;99.90
23347;DHT22;36852;45.466;11.066;2024-01-27T07:07:26;1.10;99.90
23347;DHT22;36852;45.466;11.066;2024-01-27T07:09:57;1.10;99.90
23347;DHT22;36852;45.466;11.066;2024-01-27T07:12:27;1.10;99.90
23347;DHT22;36852;45.466;11.066;2024-01-27T07:14:54;1.10;99.90
23347;DHT22;36852;45.466;11.066;2024-01-27T07:17:24;1.10;99.90
23347;DHT22;36852;45.466;11.066;2024-01-27T07:19:52;1.00;99.90
23347;DHT22;36852;45.466;11.066;2024-01-27T07:22:23;0.90;99.90
23347;DHT22;36852;45.466;11.066;2024-01-27T07:24:52;0.90;99.90
23347;DHT22;36852;45.466;11.066;2024-01-27T07:27:19;1.00;99.90
23347;DHT22;36852;45.466;11.066;2024-01-27T07:29:47;1.00;99.90
23347;DHT22;36852;45.466;11.066;2024-01-27T07:32:15;1.00;99.90
23347;DHT22;36852;45.466;11.066;2024-01-27T07:34:44;1.00;99.90
23347;DHT22;36852;45.466;11.066;2024-01-27T07:37:12;1.00;99.90
23347;DHT22;36852;45.466;11.066;2024-01-27T07:39:41;1.10;99.90
23347;DHT22;36852;45.466;11.066;2024-01-27T07:42:09;1.20;99.90
23347;DHT22;36852;45.466;11.066;2024-01-27T07:44:39;1.30;99.90
23347;DHT22;36852;45.466;11.066;2024-01-27T07:47:07;1.30;99.90
23347;DHT22;36852;45.466;11.066;2024-01-27T07:49:36;1.30;99.90
23347;DHT22;36852;45.466;11.066;2024-01-27T07:52:04;1.40;99.90
23347;DHT22;36852;45.466;11.066;2024-01-27T07:54:33;1.30;99.90
23347;DHT22;36852;45.466;11.066;2024-01-27T07:57:04;1.40;99.90
23347;DHT22;36852;45.466;11.066;2024-01-27T07:59:33;1.60;99.90
23347;DHT22;36852;45.466;11.066;2024-01-27T08:02:01;1.70;99.90
23347;DHT22;36852;45.466;11.066;2024-01-27T08:04:29;1.80;99.90
23347;DHT22;36852;45.466;11.066;2024-01-27T08:06:58;1.90;99.90
23347;DHT22;36852;45.466;11.066;2024-01-27T08:09:26;2.00;99.90
23347;DHT22;36852;45.466;11.066;2024-01-27T08:11:56;2.10;99.90
23347;DHT22;36852;45.466;11.066;2024-01-27T08:14:24;2.30;99.90
23347;DHT22;36852;45.466;11.066;2024-01-27T08:16:53;2.30;99.90
23347;DHT22;36852;45.466;11.066;2024-01-27T08:19:23;2.40;99.90
23347;DHT22;36852;45.466;11.066;2024-01-27T08:21:52;2.50;99.90
23347;DHT22;36852;45.466;11.066;2024-01-27T08:24:19;2.60;99.90
23347;DHT22;36852;45.466;11.066;2024-01-27T08:26:48;2.80;99.90
23347;DHT22;36852;45.466;11.066;2024-01-27T08:29:16;3.00;99.90
23347;DHT22;36852;45.466;11.066;2024-01-27T08:35:39;3.30;99.90
23347;DHT22;36852;45.466;11.066;2024-01-27T08:41:15;3.60;99.90
23347;DHT22;36852;45.466;11.066;2024-01-27T08:44:02;3.70;99.90
23347;DHT22;36852;45.466;11.066;2024-01-27T08:49:40;3.70;99.90
23347;DHT22;36852;45.466;11.066;2024-01-27T08:58:45;3.50;99.90
23347;DHT22;36852;45.466;11.066;2024-01-27T09:23:40;4.80;99.90
23347;DHT22;36852;45.466;11.066;2024-01-27T09:26:29;4.70;99.90
23347;DHT22;36852;45.466;11.066;2024-01-27T09:29:05;4.90;99.90
23347;DHT22;36852;45.466;11.066;2024-01-27T09:31:34;4.90;99.90
23347;DHT22;36852;45.466;11.066;2024-01-27T09:34:04;5.00;99.90
23347;DHT22;36852;45.466;11.066;2024-01-27T09:39:27;4.90;99.90
23347;DHT22;36852;45.466;11.066;2024-01-27T09:48:12;5.00;99.90
23347;DHT22;36852;45.466;11.066;2024-01-27T09:51:06;4.90;99.90
23347;DHT22;36852;45.466;11.066;2024-01-27T09:54:05;5.00;99.90
23347;DHT22;36852;45.466;11.066;2024-01-27T09:56:36;5.00;99.90
23347;DHT22;36852;45.466;11.066;2024-01-27T09:59:08;4.90;99.90
23347;DHT22;36852;45.466;11.066;2024-01-27T10:01:38;4.90;99.90
23347;DHT22;36852;45.466;11.066;2024-01-27T10:04:08;4.80;99.90
23347;DHT22;36852;45.466;11.066;2024-01-27T10:06:57;4.80;99.90
23347;DHT22;36852;45.466;11.066;2024-01-27T10:09:26;4.90;99.90
23347;DHT22;36852;45.466;11.066;2024-01-27T10:11:58;5.00;99.90
23347;DHT22;36852;45.466;11.066;2024-01-27T10:17:33;5.00;99.90
23347;DHT22;36852;45.466;11.066;2024-01-27T10:20:19;5.10;99.90
23347;DHT22;36852;45.466;11.066;2024-01-27T10:22:56;5.10;99.90
23347;DHT22;36852;45.466;11.066;2024-01-27T10:26:17;5.10;99.90
23347;DHT22;36852;45.466;11.066;2024-01-27T10:29:10;5.00;99.90
23347;DHT22;36852;45.466;11.066;2024-01-27T10:57:04;5.70;99.90
23347;DHT22;36852;45.466;11.066;2024-01-27T10:59:37;5.70;99.90
23347;DHT22;36852;45.466;11.066;2024-01-27T11:02:11;5.70;99.90
23347;DHT22;36852;45.466;11.066;2024-01-27T11:04:53;5.60;99.90
23347;DHT22;36852;45.466;11.066;2024-01-27T11:07:34;5.60;99.90
23347;DHT22;36852;45.466;11.066;2024-01-27T11:10:03;5.60;99.90
23347;DHT22;36852;45.466;11.066;2024-01-27T14:06:41;7.50;99.90
23347;DHT22;36852;45.466;11.066;2024-01-27T22:48:33;2.60;99.90
23347;DHT22;36852;45.466;11.066;2024-01-27T22:57:28;2.50;99.90
23347;DHT22;36852;45.466;11.066;2024-01-27T23:03:15;2.30;99.90
23347;DHT22;36852;45.466;11.066;2024-01-27T23:06:04;2.30;99.90
23347;DHT22;36852;45.466;11.066;2024-01-27T23:18:59;2.30;99.90
23347;DHT22;36852;45.466;11.066;2024-01-27T23:27:36;2.30;99.90
23347;DHT22;36852;45.466;11.066;2024-01-27T23:51:41;2.20;99.90
23347;DHT22;36852;45.466;11.066;2024-01-27T23:54:17;2.30;99.90
23347;DHT22;36852;45.466;11.066;2024-01-27T23:57:29;2.20;99.90
